Aérodrome :
LOGIN :

S'inscrire | Disclaimer

   EN    FR    IT 

 










Légende :    VFR   VFR Marginal   IFR   IFR Intensif   IFR Très Intensif
Visi : 
Plafond : 
>= 8 km
>= 3000ft
5 à 8 km
1000 à 3000 ft
1500m à 5 km
500 à 1000 ft
800 à 1500m
200 à 500 ft
< 800m
< 200 ft
Symboles :   Orages  Brouillard  Fortes neiges  Fortes précipitations  Vent > 20 kt
SIGMETs :   Divers  Orages  Givrage  Turbulence  Onde Orograph.  Cendres Volcan.







- Altitude de l'aérodrome : 479 ft
- Code IATA : DOL
- Voir les cartes d'approche


LFRG - Deauville

DERNIER METAR :
  • 161700Z AUTO 22004KT 190V250 CAVOK 23/15 Q1019 NOSIG

METARs EXPIRÉS :
  • 161630Z AUTO VRB03KT CAVOK 24/15 Q1019 NOSIG
  • 161600Z AUTO VRB02KT CAVOK 23/15 Q1019 NOSIG
  • 161530Z AUTO 05003KT 340V100 9999 FEW038 23/14 Q1019 NOSIG
  • 161500Z AUTO 36005KT 330V050 CAVOK 23/15 Q1020 NOSIG
  • 161430Z AUTO 01005KT 340V040 9999 FEW049 22/15 Q1020 NOSIG

TAF TAF LFRG
Valide du 16 à 15h jusqu'au 17 à 00h UTC


161400Z 1615/1624 34006KT 9999 BKN045
BECMG 1615/1617 VRB03KT
BECMG 1620/1622 20008KT
ATIS : +33 2 31 65 65 36
Pas de NOTAMs connus pour ce terrain.



MET'MAP, la Météo Aéronautique d'un coup d'oeil ! - Copyright ORBIFLY Décembre 2007 - Disclaimer

ORBIFLY MET'MAP TEAM :

Programmation & Développement : Alexandra Zaïnal
Conception & Développement : Baudouin d'Aumeries
Co-Programmation & Développement : Marc-Olivier Méhu
Soutien technique & logistique : Manuel Goepfert

Contact : metmap@orbifly.com




SOURCES & CREDITS :

   NOAA